createdAt,value
2023-11-24T00:02:16.507Z,8.20
2023-11-24T00:04:47.581Z,8.10
2023-11-24T00:07:22.227Z,8.10
2023-11-24T00:10:14.442Z,8.10
2023-11-24T00:12:43.085Z,8.20
2023-11-24T00:15:11.792Z,8.20
2023-11-24T00:17:48.087Z,8.20
2023-11-24T00:20:16.211Z,8.20
2023-11-24T00:22:47.009Z,8.20
2023-11-24T00:25:16.608Z,8.20
2023-11-24T00:27:52.500Z,8.10
2023-11-24T00:30:20.784Z,8.10
2023-11-24T00:32:48.936Z,8.10
2023-11-24T00:35:21.893Z,8.10
2023-11-24T00:37:52.774Z,8.10
2023-11-24T00:40:28.193Z,8.00
2023-11-24T00:42:56.796Z,8.00
2023-11-24T00:45:24.860Z,8.00
2023-11-24T00:47:52.970Z,8.00
2023-11-24T00:50:20.968Z,8.00
2023-11-24T00:52:51.836Z,8.00
2023-11-24T00:55:23.287Z,7.90
2023-11-24T00:57:52.702Z,7.90
2023-11-24T01:00:21.172Z,7.90
2023-11-24T01:02:52.032Z,7.80
2023-11-24T01:05:22.856Z,7.80
2023-11-24T01:07:51.366Z,7.80
2023-11-24T01:10:19.369Z,7.80
2023-11-24T01:12:50.454Z,7.80
2023-11-24T01:15:22.868Z,7.70
2023-11-24T01:18:16.908Z,7.70
2023-11-24T01:20:54.059Z,7.70
2023-11-24T01:23:22.014Z,7.70
2023-11-24T01:25:50.155Z,7.70
2023-11-24T01:28:20.916Z,7.70
2023-11-24T01:30:50.991Z,7.70
2023-11-24T01:33:31.406Z,7.60
2023-11-24T01:36:06.001Z,7.50
2023-11-24T01:38:37.182Z,7.50
2023-11-24T01:41:11.418Z,7.30
2023-11-24T01:43:59.635Z,7.20
2023-11-24T01:46:29.528Z,7.10
2023-11-24T01:49:04.406Z,7.10
2023-11-24T01:51:41.784Z,6.90
2023-11-24T01:54:11.903Z,6.90
2023-11-24T01:56:43.293Z,6.80
2023-11-24T01:59:16.417Z,6.80
2023-11-24T02:01:45.897Z,6.70
2023-11-24T02:04:20.070Z,6.70
2023-11-24T02:07:03.668Z,6.70
2023-11-24T02:09:38.078Z,6.70
2023-11-24T02:12:12.145Z,6.60
2023-11-24T02:14:45.985Z,6.60
2023-11-24T02:17:16.690Z,6.60
2023-11-24T02:19:46.293Z,6.60
2023-11-24T02:22:31.787Z,6.60
2023-11-24T02:25:03.735Z,6.60
2023-11-24T02:27:31.778Z,6.60
2023-11-24T02:30:03.124Z,6.60
2023-11-24T02:32:31.099Z,6.60
2023-11-24T02:35:02.437Z,6.60
2023-11-24T02:37:30.441Z,6.60
2023-11-24T02:40:07.352Z,6.60
2023-11-24T02:42:50.634Z,6.60
2023-11-24T02:45:21.486Z,6.70
2023-11-24T02:47:49.960Z,6.70
2023-11-24T02:50:21.099Z,6.70
2023-11-24T02:52:49.088Z,6.80
2023-11-24T02:55:19.665Z,6.90
2023-11-24T02:57:50.601Z,6.90
2023-11-24T03:00:22.136Z,6.90
2023-11-24T03:02:50.175Z,7.00
2023-11-24T03:05:24.817Z,7.00
2023-11-24T03:08:09.037Z,7.00
2023-11-24T03:10:46.064Z,7.00
2023-11-24T03:13:17.213Z,7.00
2023-11-24T03:15:48.340Z,6.90
2023-11-24T03:18:22.332Z,6.90
2023-11-24T03:20:50.404Z,6.80
2023-11-24T03:23:19.183Z,6.80
2023-11-24T03:25:48.538Z,6.80
2023-11-24T03:28:19.856Z,6.70
2023-11-24T03:31:11.108Z,6.70
2023-11-24T03:33:44.172Z,6.70
2023-11-24T03:36:18.553Z,6.70
2023-11-24T03:38:46.593Z,6.60
2023-11-24T03:41:18.576Z,6.60
2023-11-24T03:43:46.574Z,6.60
2023-11-24T03:46:14.624Z,6.50
2023-11-24T03:48:47.011Z,6.50
2023-11-24T03:51:29.308Z,6.50
2023-11-24T03:54:03.466Z,6.60
2023-11-24T03:56:35.176Z,6.60
2023-11-24T03:59:06.746Z,6.60
2023-11-24T04:01:43.677Z,6.60
2023-11-24T04:04:11.916Z,6.60
2023-11-24T04:06:42.448Z,6.60
2023-11-24T04:09:19.062Z,6.60
2023-11-24T04:11:48.467Z,6.60
2023-11-24T04:14:16.571Z,6.60
2023-11-24T04:16:44.670Z,6.60
2023-11-24T04:19:21.733Z,6.60
2023-11-24T04:21:56.408Z,6.60
2023-11-24T04:24:25.130Z,6.60
2023-11-24T04:26:54.836Z,6.60
2023-11-24T04:29:37.194Z,6.60
2023-11-24T04:32:10.741Z,6.60
2023-11-24T04:34:44.763Z,6.60
2023-11-24T04:37:20.977Z,6.50
2023-11-24T04:39:56.994Z,6.40
2023-11-24T04:42:27.971Z,6.30
2023-11-24T04:45:02.297Z,6.30
2023-11-24T04:47:32.989Z,6.20
2023-11-24T04:50:17.472Z,6.10
2023-11-24T04:52:50.717Z,6.10
2023-11-24T04:55:24.747Z,6.10
2023-11-24T04:57:54.127Z,6.10
2023-11-24T05:00:29.351Z,6.10
2023-11-24T05:03:03.655Z,6.10
2023-11-24T05:05:41.157Z,6.10
2023-11-24T05:08:09.604Z,6.20
2023-11-24T05:10:40.427Z,6.20
2023-11-24T05:13:22.092Z,6.20
2023-11-24T05:15:53.354Z,6.20
2023-11-24T05:18:21.366Z,6.10
2023-11-24T05:20:52.391Z,6.00
2023-11-24T05:23:20.791Z,6.00
2023-11-24T05:25:48.921Z,5.90
2023-11-24T05:28:21.533Z,5.90
2023-11-24T05:30:49.612Z,5.80
2023-11-24T05:33:17.599Z,5.70
2023-11-24T05:35:45.725Z,5.60
2023-11-24T05:38:20.493Z,5.50
2023-11-24T05:40:50.123Z,5.50
2023-11-24T05:43:18.415Z,5.40
2023-11-24T05:45:54.478Z,5.30
2023-11-24T05:48:22.566Z,5.30
2023-11-24T05:51:04.454Z,5.20
2023-11-24T05:53:32.431Z,5.20
2023-11-24T05:56:15.748Z,5.20
2023-11-24T05:58:46.155Z,5.10
2023-11-24T06:01:21.300Z,5.10
2023-11-24T06:03:52.502Z,5.00
2023-11-24T06:06:29.549Z,4.90
2023-11-24T06:08:59.725Z,4.90
2023-11-24T06:11:30.572Z,4.90
2023-11-24T06:13:58.700Z,4.90
2023-11-24T06:16:31.511Z,5.00
2023-11-24T06:19:02.770Z,5.00
2023-11-24T06:21:34.955Z,5.00
2023-11-24T06:24:03.231Z,4.90
2023-11-24T06:26:32.222Z,4.80
2023-11-24T06:29:00.246Z,4.90
2023-11-24T06:31:29.206Z,4.90
2023-11-24T06:33:58.693Z,4.90
2023-11-24T06:36:26.738Z,5.00
2023-11-24T06:38:54.705Z,5.00
2023-11-24T06:41:22.856Z,5.00
2023-11-24T06:43:50.833Z,5.10
2023-11-24T06:46:27.995Z,5.10
2023-11-24T06:48:56.025Z,5.10
2023-11-24T06:51:34.354Z,5.10
2023-11-24T06:54:02.387Z,5.20
2023-11-24T06:56:32.425Z,5.10
2023-11-24T06:59:00.721Z,5.20
2023-11-24T07:01:32.563Z,5.20
2023-11-24T07:04:01.521Z,5.10
2023-11-24T07:06:31.294Z,5.10
2023-11-24T07:08:59.999Z,5.10
2023-11-24T07:11:28.181Z,5.20
2023-11-24T07:13:56.194Z,5.20
2023-11-24T07:16:24.607Z,5.30
2023-11-24T07:18:53.499Z,5.30
2023-11-24T07:21:22.534Z,5.30
2023-11-24T07:23:51.901Z,5.30
2023-11-24T07:26:20.743Z,5.30
2023-11-24T07:28:48.713Z,5.40
2023-11-24T07:31:18.530Z,5.40
2023-11-24T07:33:49.786Z,5.40
2023-11-24T07:36:20.342Z,5.30
2023-11-24T07:38:48.654Z,5.30
2023-11-24T07:41:18.215Z,5.40
2023-11-24T07:43:46.805Z,5.40
2023-11-24T07:46:15.144Z,5.40
2023-11-24T07:48:43.626Z,5.40
2023-11-24T07:51:11.825Z,5.40
2023-11-24T07:53:39.810Z,5.40
2023-11-24T07:56:09.299Z,5.40
2023-11-24T07:58:38.996Z,5.40
2023-11-24T08:01:09.027Z,5.50
2023-11-24T08:03:37.401Z,5.50
2023-11-24T08:06:08.623Z,5.50
2023-11-24T08:08:37.280Z,5.50
2023-11-24T08:11:06.078Z,5.60
2023-11-24T08:13:34.277Z,5.60
2023-11-24T08:16:04.779Z,5.60
2023-11-24T08:18:32.995Z,5.60
2023-11-24T08:21:03.442Z,5.70
2023-11-24T08:23:31.814Z,5.70
2023-11-24T08:25:59.857Z,5.70
2023-11-24T08:28:27.874Z,5.70
2023-11-24T08:30:56.570Z,5.70
2023-11-24T08:33:26.042Z,5.70
2023-11-24T08:35:54.167Z,5.80
2023-11-24T08:38:22.191Z,5.80
2023-11-24T08:40:50.426Z,5.80
2023-11-24T08:43:22.882Z,5.80
2023-11-24T08:45:50.994Z,5.90
2023-11-24T08:48:19.086Z,5.90
2023-11-24T08:50:48.490Z,5.90
2023-11-24T08:53:16.603Z,5.90
2023-11-24T08:55:44.598Z,5.90
2023-11-24T08:58:15.997Z,5.80
2023-11-24T09:00:44.108Z,5.70
2023-11-24T09:03:13.201Z,5.80
2023-11-24T09:05:42.668Z,5.70
2023-11-24T09:08:12.025Z,5.70
2023-11-24T09:10:43.441Z,5.70
2023-11-24T09:13:14.523Z,5.70
2023-11-24T09:15:43.582Z,5.80
2023-11-24T09:18:12.181Z,5.70
2023-11-24T09:20:40.260Z,5.70
2023-11-24T09:23:08.292Z,5.70
2023-11-24T09:25:37.660Z,5.80
2023-11-24T09:28:10.649Z,5.80
2023-11-24T09:30:39.792Z,5.90
2023-11-24T09:33:09.516Z,5.90
2023-11-24T09:35:37.557Z,6.00
2023-11-24T09:38:07.381Z,6.00
2023-11-24T09:40:38.960Z,5.90
2023-11-24T09:43:07.023Z,6.00
2023-11-24T09:45:35.245Z,6.10
2023-11-24T09:48:06.091Z,6.10
2023-11-24T09:50:36.422Z,6.20
2023-11-24T09:53:05.431Z,6.30
2023-11-24T09:55:33.519Z,6.30
2023-11-24T09:58:03.881Z,6.20
2023-11-24T10:00:32.049Z,6.20
2023-11-24T10:03:04.196Z,6.10
2023-11-24T10:05:33.353Z,6.20
2023-11-24T10:08:02.187Z,6.10
2023-11-24T10:10:33.757Z,6.10
2023-11-24T10:13:04.804Z,6.10
2023-11-24T10:15:33.454Z,6.20
2023-11-24T10:18:02.454Z,6.20
2023-11-24T10:20:31.637Z,6.10
2023-11-24T10:23:04.541Z,6.10
2023-11-24T10:25:35.628Z,6.00
2023-11-24T10:28:08.283Z,6.00
2023-11-24T10:30:36.547Z,6.00
2023-11-24T10:33:06.264Z,6.00
2023-11-24T10:35:34.451Z,6.00
2023-11-24T10:38:04.130Z,6.00
2023-11-24T10:40:34.148Z,6.00
2023-11-24T10:43:11.423Z,6.00
2023-11-24T10:45:43.120Z,6.00
2023-11-24T10:48:18.553Z,6.00
2023-11-24T10:50:58.688Z,6.10
2023-11-24T10:53:30.070Z,6.10
2023-11-24T10:56:00.906Z,6.10
2023-11-24T10:58:30.948Z,6.10
2023-11-24T11:00:59.532Z,6.10
2023-11-24T11:03:29.011Z,6.10
2023-11-24T11:06:06.271Z,6.10
2023-11-24T11:08:38.879Z,6.10
2023-11-24T11:11:50.518Z,6.10
2023-11-24T11:14:23.334Z,6.20
2023-11-24T11:16:53.877Z,6.20
2023-11-24T11:19:32.471Z,6.20
2023-11-24T11:22:02.191Z,6.30
2023-11-24T11:24:31.090Z,6.30
2023-11-24T11:27:00.012Z,6.20
2023-11-24T11:29:33.563Z,6.20
2023-11-24T11:32:02.441Z,6.20
2023-11-24T11:34:32.312Z,6.10
2023-11-24T11:37:15.437Z,6.10
2023-11-24T11:39:56.935Z,6.20
2023-11-24T11:42:30.240Z,6.30
2023-11-24T11:45:17.261Z,6.30
2023-11-24T11:47:51.999Z,6.30
2023-11-24T11:50:22.258Z,6.40
2023-11-24T11:52:50.989Z,6.40
2023-11-24T11:55:21.347Z,6.40
2023-11-24T11:57:54.737Z,6.40
2023-11-24T12:00:27.794Z,6.50
2023-11-24T12:02:57.492Z,6.50
2023-11-24T12:05:27.605Z,6.60
2023-11-24T12:08:02.103Z,6.50
2023-11-24T12:10:31.423Z,6.50
2023-11-24T12:13:06.175Z,6.40
2023-11-24T12:15:39.347Z,6.40
2023-11-24T12:18:15.764Z,6.40
2023-11-24T12:20:45.406Z,6.40
2023-11-24T12:23:14.665Z,6.40
2023-11-24T12:25:43.355Z,6.40
2023-11-24T12:28:13.176Z,6.40
2023-11-24T12:30:44.245Z,6.40
2023-11-24T12:33:19.842Z,6.40
2023-11-24T12:35:49.242Z,6.40
2023-11-24T12:38:17.753Z,6.50
2023-11-24T12:40:46.446Z,6.60
2023-11-24T12:43:15.176Z,6.60
2023-11-24T12:45:49.845Z,6.70
2023-11-24T12:48:21.638Z,6.80
2023-11-24T12:50:50.430Z,6.80
2023-11-24T12:53:19.959Z,6.80
2023-11-24T12:55:48.159Z,6.80
2023-11-24T12:58:22.842Z,6.90
2023-11-24T13:00:55.120Z,6.90
2023-11-24T13:03:26.366Z,6.90
2023-11-24T13:06:14.892Z,6.90
2023-11-24T13:08:50.342Z,6.90
2023-11-24T13:11:18.876Z,6.70
2023-11-24T13:13:52.803Z,6.70
2023-11-24T13:16:28.428Z,6.60
2023-11-24T13:19:14.649Z,6.50
2023-11-24T13:21:54.663Z,6.50
2023-11-24T13:24:34.814Z,6.40
2023-11-24T13:27:05.010Z,6.40
2023-11-24T13:29:33.061Z,6.40
2023-11-24T13:32:17.243Z,6.30
2023-11-24T13:34:48.470Z,6.30
2023-11-24T13:37:19.912Z,6.30
2023-11-24T13:39:47.997Z,6.30
2023-11-24T13:42:17.871Z,6.30
2023-11-24T13:44:52.134Z,6.20
2023-11-24T13:47:26.534Z,6.30
2023-11-24T13:50:05.576Z,6.30
2023-11-24T13:52:34.180Z,6.20
2023-11-24T13:55:20.650Z,6.20
2023-11-24T13:57:49.600Z,6.20
2023-11-24T14:00:23.322Z,6.20
2023-11-24T14:02:56.204Z,6.20
2023-11-24T14:05:27.436Z,6.20
2023-11-24T14:08:08.537Z,6.20
2023-11-24T14:10:36.603Z,6.20
2023-11-24T14:13:05.700Z,6.20
2023-11-24T14:15:33.801Z,6.10
2023-11-24T14:18:03.211Z,6.10
2023-11-24T14:20:31.269Z,6.10
2023-11-24T14:23:02.420Z,6.10
2023-11-24T14:25:36.388Z,6.10
2023-11-24T14:28:05.142Z,6.00
2023-11-24T14:30:39.794Z,5.90
2023-11-24T14:33:12.072Z,5.80
2023-11-24T14:35:44.006Z,5.80
2023-11-24T14:38:12.137Z,5.70
2023-11-24T14:40:43.254Z,5.70
2023-11-24T14:43:16.010Z,5.70
2023-11-24T14:45:46.588Z,5.60
2023-11-24T14:48:17.956Z,5.60
2023-11-24T14:50:46.046Z,5.60
2023-11-24T14:53:15.792Z,5.60
2023-11-24T14:55:46.097Z,5.60
2023-11-24T14:58:19.801Z,5.60
2023-11-24T15:00:48.095Z,5.60
2023-11-24T15:03:22.824Z,5.50
2023-11-24T15:05:55.754Z,5.40
2023-11-24T15:08:24.769Z,5.40
2023-11-24T15:11:00.877Z,5.40
2023-11-24T15:13:32.017Z,5.40
2023-11-24T15:16:04.056Z,5.40
2023-11-24T15:18:33.428Z,5.40
2023-11-24T15:21:01.427Z,5.30
2023-11-24T15:23:32.771Z,5.30
2023-11-24T15:26:00.871Z,5.30
2023-11-24T15:28:34.481Z,5.30
2023-11-24T15:31:02.681Z,5.30
2023-11-24T15:33:35.548Z,5.10
2023-11-24T15:36:10.870Z,5.10
2023-11-24T15:38:46.955Z,5.00
2023-11-24T15:41:24.049Z,4.90
2023-11-24T15:43:54.411Z,4.90
2023-11-24T15:46:37.224Z,4.80
2023-11-24T15:49:15.989Z,4.80
2023-11-24T15:51:47.144Z,4.90
2023-11-24T15:54:18.586Z,4.70
2023-11-24T15:56:53.294Z,4.80
2023-11-24T15:59:25.107Z,4.70
2023-11-24T16:02:07.887Z,4.70
2023-11-24T16:04:48.485Z,4.70
2023-11-24T16:07:22.796Z,4.70
2023-11-24T16:09:52.038Z,4.60
2023-11-24T16:12:20.337Z,4.60
2023-11-24T16:15:00.450Z,4.60
2023-11-24T16:17:34.386Z,4.60
2023-11-24T16:20:06.814Z,4.70
2023-11-24T16:22:47.201Z,4.70
2023-11-24T16:25:18.240Z,4.60
2023-11-24T16:27:52.161Z,4.60
2023-11-24T16:30:22.706Z,4.60
2023-11-24T16:32:53.728Z,4.60
2023-11-24T16:35:39.578Z,4.60
2023-11-24T16:38:13.218Z,4.60
2023-11-24T16:40:47.419Z,4.60
2023-11-24T16:43:19.363Z,4.60
2023-11-24T16:45:53.635Z,4.60
2023-11-24T16:48:25.837Z,4.70
2023-11-24T16:50:55.204Z,4.70
2023-11-24T16:53:29.181Z,4.60
2023-11-24T16:56:06.913Z,4.70
2023-11-24T16:58:54.358Z,4.60
2023-11-24T17:01:22.860Z,4.50
2023-11-24T17:03:54.486Z,4.50
2023-11-24T17:06:24.319Z,4.50
2023-11-24T17:08:52.800Z,4.40
2023-11-24T17:11:26.312Z,4.40
2023-11-24T17:14:05.993Z,4.30
2023-11-24T17:16:36.902Z,4.30
2023-11-24T17:19:05.184Z,4.30
2023-11-24T17:21:34.588Z,4.30
2023-11-24T17:24:06.022Z,4.40
2023-11-24T17:26:34.797Z,4.40
2023-11-24T17:29:03.639Z,4.40
2023-11-24T17:31:43.233Z,4.50
2023-11-24T17:34:13.063Z,4.40
2023-11-24T17:36:45.288Z,4.40
2023-11-24T17:39:25.548Z,4.40
2023-11-24T17:41:59.382Z,4.30
2023-11-24T17:44:27.365Z,4.30
2023-11-24T17:46:58.481Z,4.40
2023-11-24T17:49:28.922Z,4.40
2023-11-24T17:52:03.105Z,4.40
2023-11-24T17:54:34.348Z,4.40
2023-11-24T17:57:11.353Z,4.30
2023-11-24T17:59:42.101Z,4.40
2023-11-24T18:02:22.102Z,4.30
2023-11-24T18:04:59.047Z,4.40
2023-11-24T18:07:30.710Z,4.30
2023-11-24T18:09:58.739Z,4.30
2023-11-24T18:12:31.812Z,4.30
2023-11-24T18:15:01.444Z,4.40
2023-11-24T18:17:35.589Z,4.40
2023-11-24T18:20:06.369Z,4.40
2023-11-24T18:22:35.762Z,4.40
2023-11-24T18:25:07.060Z,4.40
2023-11-24T18:27:40.330Z,4.50
2023-11-24T18:30:19.015Z,4.50
2023-11-24T18:32:50.312Z,4.50
2023-11-24T18:35:22.601Z,4.50
2023-11-24T18:37:52.472Z,4.50
2023-11-24T18:40:23.781Z,4.50
2023-11-24T18:43:00.247Z,4.60
2023-11-24T18:45:37.330Z,4.50
2023-11-24T18:48:11.590Z,4.50
2023-11-24T18:50:39.616Z,4.50
2023-11-24T18:53:36.173Z,4.50
2023-11-24T18:56:11.064Z,4.50
2023-11-24T18:58:39.284Z,4.50
2023-11-24T19:01:07.491Z,4.40
2023-11-24T19:03:39.403Z,4.40
2023-11-24T19:06:15.472Z,4.40
2023-11-24T19:08:45.327Z,4.30
2023-11-24T19:11:25.228Z,4.30
2023-11-24T19:13:55.462Z,4.20
2023-11-24T19:16:25.730Z,4.20
2023-11-24T19:18:56.870Z,4.30
2023-11-24T19:21:27.898Z,4.20
2023-11-24T19:23:57.803Z,4.20
2023-11-24T19:26:30.279Z,4.20
2023-11-24T19:29:08.257Z,4.20
2023-11-24T19:31:42.471Z,4.30
2023-11-24T19:34:13.789Z,4.30
2023-11-24T19:36:42.575Z,4.30
2023-11-24T19:39:12.225Z,4.30
2023-11-24T19:41:43.293Z,4.20
2023-11-24T19:44:20.038Z,4.20
2023-11-24T19:46:54.915Z,4.10
2023-11-24T19:49:22.973Z,4.10
2023-11-24T19:51:50.997Z,4.10
2023-11-24T19:54:35.282Z,4.00
2023-11-24T19:57:03.564Z,4.10
2023-11-24T19:59:34.877Z,4.00
2023-11-24T20:02:04.223Z,3.90
2023-11-24T20:04:49.266Z,3.90
2023-11-24T20:07:17.300Z,3.90
2023-11-24T20:09:46.806Z,3.90
2023-11-24T20:12:23.144Z,3.90
2023-11-24T20:14:54.421Z,3.90
2023-11-24T20:17:24.813Z,3.90
2023-11-24T20:19:53.706Z,3.80
2023-11-24T20:22:24.495Z,3.80
2023-11-24T20:25:08.994Z,3.90
2023-11-24T20:27:40.033Z,3.70
2023-11-24T20:30:17.045Z,3.80
2023-11-24T20:32:48.766Z,3.80
2023-11-24T20:35:53.957Z,3.80
2023-11-24T20:38:23.042Z,3.70
2023-11-24T20:40:58.489Z,3.70
2023-11-24T20:43:46.188Z,3.70
2023-11-24T20:46:32.186Z,3.70
2023-11-24T20:49:03.534Z,3.70
2023-11-24T20:54:24.369Z,3.70
2023-11-24T20:56:56.534Z,3.80
2023-11-24T20:59:28.828Z,3.80
2023-11-24T21:02:06.143Z,3.80
2023-11-24T21:04:47.203Z,3.80
2023-11-24T21:07:24.775Z,3.80
2023-11-24T21:09:55.985Z,3.80
2023-11-24T21:12:27.921Z,3.80
2023-11-24T21:15:00.234Z,3.80
2023-11-24T21:17:28.662Z,3.80
2023-11-24T21:19:56.680Z,3.70
2023-11-24T21:22:24.738Z,3.80
2023-11-24T21:24:54.418Z,3.80
2023-11-24T21:27:27.084Z,3.80
2023-11-24T21:29:55.083Z,3.80
2023-11-24T21:32:23.299Z,3.80
2023-11-24T21:34:51.718Z,3.90
2023-11-24T21:37:20.298Z,3.90
2023-11-24T21:39:48.284Z,3.70
2023-11-24T21:42:16.746Z,3.70
2023-11-24T21:44:46.299Z,3.70
2023-11-24T21:47:20.419Z,3.80
2023-11-24T21:49:49.550Z,3.70
2023-11-24T21:52:17.643Z,3.70
2023-11-24T21:54:48.777Z,3.60
2023-11-24T21:57:28.375Z,3.60
2023-11-24T22:00:06.192Z,3.40
2023-11-24T22:02:39.330Z,3.40
2023-11-24T22:05:14.469Z,3.40
2023-11-24T22:07:54.223Z,3.30
2023-11-24T22:10:25.105Z,3.20
2023-11-24T22:12:55.954Z,3.20
2023-11-24T22:15:25.428Z,3.20
2023-11-24T22:17:56.335Z,3.20
2023-11-24T22:20:25.449Z,3.30
2023-11-24T22:22:53.494Z,3.30
2023-11-24T22:25:24.763Z,3.30
2023-11-24T22:27:52.898Z,3.30
2023-11-24T22:30:25.176Z,3.40
2023-11-24T22:32:53.190Z,3.40
2023-11-24T22:35:24.044Z,3.50
2023-11-24T22:37:54.246Z,3.50
2023-11-24T22:40:27.894Z,3.50
2023-11-24T22:42:56.520Z,3.50
2023-11-24T22:45:25.959Z,3.50
2023-11-24T22:47:53.947Z,3.40
2023-11-24T22:50:25.324Z,3.20
2023-11-24T22:52:59.393Z,3.10
2023-11-24T22:55:38.844Z,3.00
2023-11-24T22:58:15.187Z,3.00
2023-11-24T23:00:51.692Z,3.00
2023-11-24T23:03:25.742Z,3.00
2023-11-24T23:05:54.967Z,3.10
2023-11-24T23:08:27.516Z,3.20
2023-11-24T23:11:00.767Z,3.20
2023-11-24T23:13:38.292Z,3.00
2023-11-24T23:16:17.387Z,3.00
2023-11-24T23:18:49.393Z,2.90
2023-11-24T23:21:32.372Z,2.90
2023-11-24T23:24:03.205Z,2.80
2023-11-24T23:26:49.600Z,2.70
2023-11-24T23:29:18.301Z,2.70
2023-11-24T23:31:47.772Z,2.70
2023-11-24T23:34:16.490Z,2.70
2023-11-24T23:36:44.544Z,2.90
2023-11-24T23:39:13.064Z,2.80
2023-11-24T23:41:46.532Z,2.80
2023-11-24T23:44:24.420Z,2.70
2023-11-24T23:47:01.639Z,2.60
2023-11-24T23:49:48.596Z,2.60
2023-11-24T23:52:16.729Z,2.60
2023-11-24T23:57:38.069Z,2.60
